sensor_id;sensor_type;location;lat;lon;timestamp;pressure;altitude;pressure_sealevel;temperature;humidity
64368;BME280;50692;53.314;-6.300;2023-04-24T00:00:34;100490.97;;;11.14;75.50
64368;BME280;50692;53.314;-6.300;2023-04-24T00:03:20;100495.41;;;11.13;75.50
64368;BME280;50692;53.314;-6.300;2023-04-24T00:06:06;100496.25;;;11.14;75.51
64368;BME280;50692;53.314;-6.300;2023-04-24T00:08:53;100492.53;;;11.18;75.35
64368;BME280;50692;53.314;-6.300;2023-04-24T00:11:39;100488.25;;;11.15;75.51
64368;BME280;50692;53.314;-6.300;2023-04-24T00:14:25;100487.41;;;11.15;75.44
64368;BME280;50692;53.314;-6.300;2023-04-24T00:17:11;100489.28;;;11.13;75.46
64368;BME280;50692;53.314;-6.300;2023-04-24T00:19:56;100489.56;;;11.08;75.87
64368;BME280;50692;53.314;-6.300;2023-04-24T00:22:46;100489.44;;;11.10;75.54
64368;BME280;50692;53.314;-6.300;2023-04-24T00:25:32;100484.25;;;11.08;75.96
64368;BME280;50692;53.314;-6.300;2023-04-24T00:28:18;100473.09;;;11.03;75.91
64368;BME280;50692;53.314;-6.300;2023-04-24T00:31:03;100482.63;;;11.05;76.08
64368;BME280;50692;53.314;-6.300;2023-04-24T00:33:51;100493.22;;;11.05;76.11
64368;BME280;50692;53.314;-6.300;2023-04-24T00:36:36;100486.41;;;11.01;76.44
64368;BME280;50692;53.314;-6.300;2023-04-24T00:39:22;100483.00;;;10.99;76.35
64368;BME280;50692;53.314;-6.300;2023-04-24T00:42:08;100488.47;;;10.96;76.58
64368;BME280;50692;53.314;-6.300;2023-04-24T00:44:54;100481.56;;;10.94;76.78
64368;BME280;50692;53.314;-6.300;2023-04-24T00:47:41;100481.84;;;10.89;76.83
64368;BME280;50692;53.314;-6.300;2023-04-24T00:50:28;100487.31;;;10.86;76.88
64368;BME280;50692;53.314;-6.300;2023-04-24T00:53:14;100481.34;;;10.83;77.17
64368;BME280;50692;53.314;-6.300;2023-04-24T00:56:00;100482.53;;;10.77;77.33
64368;BME280;50692;53.314;-6.300;2023-04-24T00:58:47;100476.69;;;10.72;77.33
64368;BME280;50692;53.314;-6.300;2023-04-24T01:01:33;100479.50;;;10.69;77.60
64368;BME280;50692;53.314;-6.300;2023-04-24T01:04:19;100475.38;;;10.63;77.83
64368;BME280;50692;53.314;-6.300;2023-04-24T01:07:05;100477.28;;;10.61;77.85
64368;BME280;50692;53.314;-6.300;2023-04-24T01:09:56;100480.28;;;10.55;78.12
64368;BME280;50692;53.314;-6.300;2023-04-24T01:12:42;100484.78;;;10.53;78.14
64368;BME280;50692;53.314;-6.300;2023-04-24T01:15:27;100478.75;;;10.51;78.30
64368;BME280;50692;53.314;-6.300;2023-04-24T01:18:14;100475.41;;;10.47;78.25
64368;BME280;50692;53.314;-6.300;2023-04-24T01:21:03;100480.69;;;10.47;78.11
64368;BME280;50692;53.314;-6.300;2023-04-24T01:23:49;100487.09;;;10.43;78.16
64368;BME280;50692;53.314;-6.300;2023-04-24T01:26:36;100500.66;;;10.37;78.37
64368;BME280;50692;53.314;-6.300;2023-04-24T01:29:22;100504.22;;;10.36;78.40
64368;BME280;50692;53.314;-6.300;2023-04-24T01:32:08;100504.97;;;10.38;78.37
64368;BME280;50692;53.314;-6.300;2023-04-24T01:34:54;100507.22;;;10.46;78.00
64368;BME280;50692;53.314;-6.300;2023-04-24T01:37:40;100500.47;;;10.40;77.94
64368;BME280;50692;53.314;-6.300;2023-04-24T01:40:26;100509.19;;;10.42;77.91
64368;BME280;50692;53.314;-6.300;2023-04-24T01:43:12;100511.91;;;10.41;77.96
64368;BME280;50692;53.314;-6.300;2023-04-24T01:45:58;100505.09;;;10.37;78.15
64368;BME280;50692;53.314;-6.300;2023-04-24T01:48:45;100497.47;;;10.30;78.51
64368;BME280;50692;53.314;-6.300;2023-04-24T01:51:31;100502.72;;;10.32;78.91
64368;BME280;50692;53.314;-6.300;2023-04-24T01:54:17;100505.25;;;10.33;78.93
64368;BME280;50692;53.314;-6.300;2023-04-24T01:57:03;100506.03;;;10.36;79.00
64368;BME280;50692;53.314;-6.300;2023-04-24T01:59:49;100508.75;;;10.34;79.20
64368;BME280;50692;53.314;-6.300;2023-04-24T02:02:35;100512.31;;;10.33;79.66
64368;BME280;50692;53.314;-6.300;2023-04-24T02:05:21;100515.81;;;10.33;79.60
64368;BME280;50692;53.314;-6.300;2023-04-24T02:08:07;100513.94;;;10.36;79.74
64368;BME280;50692;53.314;-6.300;2023-04-24T02:10:52;100518.41;;;10.35;79.65
64368;BME280;50692;53.314;-6.300;2023-04-24T02:13:38;100526.31;;;10.35;79.81
64368;BME280;50692;53.314;-6.300;2023-04-24T02:16:24;100515.56;;;10.38;79.86
64368;BME280;50692;53.314;-6.300;2023-04-24T02:19:10;100519.56;;;10.45;79.78
64368;BME280;50692;53.314;-6.300;2023-04-24T02:21:56;100518.72;;;10.45;79.92
64368;BME280;50692;53.314;-6.300;2023-04-24T02:24:42;100513.25;;;10.48;80.25
64368;BME280;50692;53.314;-6.300;2023-04-24T02:27:27;100515.75;;;10.51;80.07
64368;BME280;50692;53.314;-6.300;2023-04-24T02:30:13;100519.91;;;10.55;80.13
64368;BME280;50692;53.314;-6.300;2023-04-24T02:32:59;100531.16;;;10.59;80.13
64368;BME280;50692;53.314;-6.300;2023-04-24T02:35:45;100517.84;;;10.60;80.17
64368;BME280;50692;53.314;-6.300;2023-04-24T02:38:31;100531.84;;;10.62;80.21
64368;BME280;50692;53.314;-6.300;2023-04-24T02:41:17;100531.06;;;10.60;80.05
64368;BME280;50692;53.314;-6.300;2023-04-24T02:44:03;100529.09;;;10.64;79.92
64368;BME280;50692;53.314;-6.300;2023-04-24T02:46:48;100532.69;;;10.63;79.79
64368;BME280;50692;53.314;-6.300;2023-04-24T02:49:34;100528.09;;;10.66;79.90
64368;BME280;50692;53.314;-6.300;2023-04-24T02:52:20;100527.13;;;10.67;79.78
64368;BME280;50692;53.314;-6.300;2023-04-24T02:55:06;100529.78;;;10.67;79.66
64368;BME280;50692;53.314;-6.300;2023-04-24T02:57:53;100529.78;;;10.67;79.95
64368;BME280;50692;53.314;-6.300;2023-04-24T03:00:39;100529.78;;;10.67;80.15
64368;BME280;50692;53.314;-6.300;2023-04-24T03:03:25;100527.25;;;10.66;80.38
64368;BME280;50692;53.314;-6.300;2023-04-24T03:06:11;100535.94;;;10.68;80.63
64368;BME280;50692;53.314;-6.300;2023-04-24T03:08:57;100535.00;;;10.69;81.13
64368;BME280;50692;53.314;-6.300;2023-04-24T03:11:42;100530.91;;;10.63;81.66
64368;BME280;50692;53.314;-6.300;2023-04-24T03:14:28;100533.53;;;10.63;81.48
64368;BME280;50692;53.314;-6.300;2023-04-24T03:17:16;100539.69;;;10.64;81.89
64368;BME280;50692;53.314;-6.300;2023-04-24T03:20:03;100538.75;;;10.65;81.82
64368;BME280;50692;53.314;-6.300;2023-04-24T03:22:50;100529.88;;;10.66;82.04
64368;BME280;50692;53.314;-6.300;2023-04-24T03:25:36;100534.22;;;10.67;82.08
64368;BME280;50692;53.314;-6.300;2023-04-24T03:28:22;100533.38;;;10.66;82.07
64368;BME280;50692;53.314;-6.300;2023-04-24T03:31:08;100521.28;;;10.62;82.14
64368;BME280;50692;53.314;-6.300;2023-04-24T03:33:54;100536.97;;;10.65;82.37
64368;BME280;50692;53.314;-6.300;2023-04-24T03:36:40;100531.84;;;10.62;82.51
64368;BME280;50692;53.314;-6.300;2023-04-24T03:39:25;100531.94;;;10.61;82.35
64368;BME280;50692;53.314;-6.300;2023-04-24T03:42:12;100534.38;;;10.64;82.16
64368;BME280;50692;53.314;-6.300;2023-04-24T03:44:58;100526.38;;;10.65;82.18
64368;BME280;50692;53.314;-6.300;2023-04-24T03:47:44;100530.81;;;10.65;81.87
64368;BME280;50692;53.314;-6.300;2023-04-24T03:50:30;100528.25;;;10.63;81.61
64368;BME280;50692;53.314;-6.300;2023-04-24T03:53:15;100533.69;;;10.60;82.45
64368;BME280;50692;53.314;-6.300;2023-04-24T03:56:01;100527.84;;;10.55;82.55
64368;BME280;50692;53.314;-6.300;2023-04-24T03:58:47;100531.31;;;10.55;82.78
64368;BME280;50692;53.314;-6.300;2023-04-24T04:01:33;100525.28;;;10.53;82.86
64368;BME280;50692;53.314;-6.300;2023-04-24T04:04:22;100528.69;;;10.55;82.95
64368;BME280;50692;53.314;-6.300;2023-04-24T04:07:07;100519.22;;;10.51;83.32
64368;BME280;50692;53.314;-6.300;2023-04-24T04:09:54;100536.72;;;10.54;83.28
64368;BME280;50692;53.314;-6.300;2023-04-24T04:12:39;100535.09;;;10.51;83.88
64368;BME280;50692;53.314;-6.300;2023-04-24T04:15:25;100536.03;;;10.50;84.09
64368;BME280;50692;53.314;-6.300;2023-04-24T04:18:11;100523.16;;;10.44;84.27
64368;BME280;50692;53.314;-6.300;2023-04-24T04:20:57;100537.81;;;10.50;84.57
64368;BME280;50692;53.314;-6.300;2023-04-24T04:23:43;100540.69;;;10.45;85.18
64368;BME280;50692;53.314;-6.300;2023-04-24T04:26:30;100537.38;;;10.42;85.39
64368;BME280;50692;53.314;-6.300;2023-04-24T04:29:18;100539.53;;;10.35;85.42
64368;BME280;50692;53.314;-6.300;2023-04-24T04:32:03;100540.38;;;10.36;85.60
64368;BME280;50692;53.314;-6.300;2023-04-24T04:34:49;100540.44;;;10.34;85.77
64368;BME280;50692;53.314;-6.300;2023-04-24T04:37:38;100542.72;;;10.24;85.94
64368;BME280;50692;53.314;-6.300;2023-04-24T04:40:25;100537.81;;;10.17;86.18
64368;BME280;50692;53.314;-6.300;2023-04-24T04:43:12;100540.47;;;10.17;86.15
64368;BME280;50692;53.314;-6.300;2023-04-24T04:46:01;100558.50;;;10.26;86.95
64368;BME280;50692;53.314;-6.300;2023-04-24T04:48:48;100557.56;;;10.27;86.15
64368;BME280;50692;53.314;-6.300;2023-04-24T04:51:34;100574.19;;;10.29;86.75
64368;BME280;50692;53.314;-6.300;2023-04-24T04:54:20;100583.13;;;10.09;88.03
64368;BME280;50692;53.314;-6.300;2023-04-24T04:57:06;100588.56;;;9.73;89.28
64368;BME280;50692;53.314;-6.300;2023-04-24T04:59:52;100593.06;;;9.53;89.33
64368;BME280;50692;53.314;-6.300;2023-04-24T05:02:38;100588.16;;;9.11;89.96
64368;BME280;50692;53.314;-6.300;2023-04-24T05:05:24;100622.22;;;8.97;89.84
64368;BME280;50692;53.314;-6.300;2023-04-24T05:08:10;100624.03;;;8.58;88.64
64368;BME280;50692;53.314;-6.300;2023-04-24T05:10:56;100635.13;;;8.46;88.02
64368;BME280;50692;53.314;-6.300;2023-04-24T05:13:42;100626.44;;;8.44;88.00
64368;BME280;50692;53.314;-6.300;2023-04-24T05:16:27;100619.91;;;8.53;87.81
64368;BME280;50692;53.314;-6.300;2023-04-24T05:19:13;100623.88;;;8.61;88.77
64368;BME280;50692;53.314;-6.300;2023-04-24T05:22:00;100618.03;;;8.74;89.67
64368;BME280;50692;53.314;-6.300;2023-04-24T05:24:48;100622.97;;;8.81;89.54
64368;BME280;50692;53.314;-6.300;2023-04-24T05:27:34;100627.22;;;8.84;89.73
64368;BME280;50692;53.314;-6.300;2023-04-24T05:30:20;100628.16;;;8.83;90.37
64368;BME280;50692;53.314;-6.300;2023-04-24T05:33:06;100630.06;;;8.79;91.29
64368;BME280;50692;53.314;-6.300;2023-04-24T05:35:52;100631.00;;;8.78;91.61
64368;BME280;50692;53.314;-6.300;2023-04-24T05:38:38;100642.25;;;8.82;91.58
64368;BME280;50692;53.314;-6.300;2023-04-24T05:41:23;100648.75;;;8.75;92.10
64368;BME280;50692;53.314;-6.300;2023-04-24T05:44:09;100661.06;;;8.74;92.00
64368;BME280;50692;53.314;-6.300;2023-04-24T05:46:55;100666.97;;;8.79;91.97
64368;BME280;50692;53.314;-6.300;2023-04-24T05:49:41;100667.34;;;8.72;92.13
64368;BME280;50692;53.314;-6.300;2023-04-24T05:52:27;100666.66;;;8.67;91.96
64368;BME280;50692;53.314;-6.300;2023-04-24T05:55:13;100671.94;;;8.67;91.69
64368;BME280;50692;53.314;-6.300;2023-04-24T05:57:59;100678.63;;;8.55;91.69
64368;BME280;50692;53.314;-6.300;2023-04-24T06:00:44;100686.03;;;8.47;91.43
64368;BME280;50692;53.314;-6.300;2023-04-24T06:03:32;100696.69;;;8.44;91.20
64368;BME280;50692;53.314;-6.300;2023-04-24T06:06:18;100697.41;;;8.47;90.91
64368;BME280;50692;53.314;-6.300;2023-04-24T06:09:04;100700.19;;;8.44;90.70
64368;BME280;50692;53.314;-6.300;2023-04-24T06:11:51;100686.88;;;8.27;90.80
64368;BME280;50692;53.314;-6.300;2023-04-24T06:14:39;100706.44;;;8.41;90.71
64368;BME280;50692;53.314;-6.300;2023-04-24T06:17:25;100708.03;;;8.46;90.36
64368;BME280;50692;53.314;-6.300;2023-04-24T06:20:11;100716.06;;;8.43;90.61
64368;BME280;50692;53.314;-6.300;2023-04-24T06:22:57;100724.69;;;8.46;90.53
64368;BME280;50692;53.314;-6.300;2023-04-24T06:25:43;100725.34;;;8.51;90.24
64368;BME280;50692;53.314;-6.300;2023-04-24T06:28:29;100729.84;;;8.49;90.18
64368;BME280;50692;53.314;-6.300;2023-04-24T06:31:14;100739.47;;;8.49;90.99
64368;BME280;50692;53.314;-6.300;2023-04-24T06:34:01;100738.59;;;8.50;91.19
64368;BME280;50692;53.314;-6.300;2023-04-24T06:36:47;100743.19;;;8.45;91.27
64368;BME280;50692;53.314;-6.300;2023-04-24T06:39:33;100741.75;;;8.37;90.92
64368;BME280;50692;53.314;-6.300;2023-04-24T06:42:19;100756.66;;;8.37;90.91
64368;BME280;50692;53.314;-6.300;2023-04-24T06:45:07;100753.06;;;8.39;90.76
64368;BME280;50692;53.314;-6.300;2023-04-24T06:47:53;100760.13;;;8.39;90.50
64368;BME280;50692;53.314;-6.300;2023-04-24T06:50:39;100765.63;;;8.33;90.60
64368;BME280;50692;53.314;-6.300;2023-04-24T06:53:25;100756.13;;;8.29;90.39
64368;BME280;50692;53.314;-6.300;2023-04-24T06:56:10;100765.63;;;8.33;90.27
64368;BME280;50692;53.314;-6.300;2023-04-24T06:58:56;100775.34;;;8.31;89.90
64368;BME280;50692;53.314;-6.300;2023-04-24T07:01:42;100779.97;;;8.26;89.56
64368;BME280;50692;53.314;-6.300;2023-04-24T07:04:28;100787.75;;;8.29;89.65
64368;BME280;50692;53.314;-6.300;2023-04-24T07:07:14;100786.16;;;8.25;89.72
64368;BME280;50692;53.314;-6.300;2023-04-24T07:10:00;100782.19;;;8.14;89.67
64368;BME280;50692;53.314;-6.300;2023-04-24T07:12:47;100789.03;;;8.18;89.59
64368;BME280;50692;53.314;-6.300;2023-04-24T07:15:32;100792.59;;;8.17;89.49
64368;BME280;50692;53.314;-6.300;2023-04-24T07:18:22;100808.28;;;8.21;89.68
64368;BME280;50692;53.314;-6.300;2023-04-24T07:21:08;100812.63;;;8.22;89.42
64368;BME280;50692;53.314;-6.300;2023-04-24T07:23:55;100803.66;;;8.26;89.14
64368;BME280;50692;53.314;-6.300;2023-04-24T07:26:41;100803.66;;;8.26;89.26
64368;BME280;50692;53.314;-6.300;2023-04-24T07:29:27;100806.94;;;8.31;89.04
64368;BME280;50692;53.314;-6.300;2023-04-24T07:32:12;100810.38;;;8.33;89.45
64368;BME280;50692;53.314;-6.300;2023-04-24T07:34:58;100815.47;;;8.37;89.31
64368;BME280;50692;53.314;-6.300;2023-04-24T07:37:44;100814.50;;;8.40;89.25
64368;BME280;50692;53.314;-6.300;2023-04-24T07:40:31;100823.06;;;8.45;89.20
64368;BME280;50692;53.314;-6.300;2023-04-24T07:43:17;100811.94;;;8.38;89.68
64368;BME280;50692;53.314;-6.300;2023-04-24T07:46:03;100821.09;;;8.50;89.43
64368;BME280;50692;53.314;-6.300;2023-04-24T07:48:49;100825.31;;;8.54;89.56
64368;BME280;50692;53.314;-6.300;2023-04-24T07:51:35;100828.03;;;8.53;89.51
64368;BME280;50692;53.314;-6.300;2023-04-24T07:54:23;100832.13;;;8.60;89.51
64368;BME280;50692;53.314;-6.300;2023-04-24T07:57:09;100840.66;;;8.65;89.47
64368;BME280;50692;53.314;-6.300;2023-04-24T07:59:55;100845.84;;;8.67;89.17
64368;BME280;50692;53.314;-6.300;2023-04-24T08:02:41;100851.06;;;8.68;89.52
64368;BME280;50692;53.314;-6.300;2023-04-24T08:05:26;100853.59;;;8.71;89.63
64368;BME280;50692;53.314;-6.300;2023-04-24T08:08:14;100858.00;;;8.71;89.62
64368;BME280;50692;53.314;-6.300;2023-04-24T08:11:00;100859.75;;;8.70;89.23
64368;BME280;50692;53.314;-6.300;2023-04-24T08:13:46;100858.97;;;8.68;88.93
64368;BME280;50692;53.314;-6.300;2023-04-24T08:16:32;100861.38;;;8.74;89.08
64368;BME280;50692;53.314;-6.300;2023-04-24T08:19:18;100861.06;;;8.80;88.84
64368;BME280;50692;53.314;-6.300;2023-04-24T08:22:05;100858.91;;;8.90;88.80
64368;BME280;50692;53.314;-6.300;2023-04-24T08:24:51;100860.47;;;8.94;88.92
64368;BME280;50692;53.314;-6.300;2023-04-24T08:27:37;100855.09;;;8.97;88.52
64368;BME280;50692;53.314;-6.300;2023-04-24T08:30:24;100876.97;;;8.99;88.72
64368;BME280;50692;53.314;-6.300;2023-04-24T08:33:10;100875.78;;;9.06;88.01
64368;BME280;50692;53.314;-6.300;2023-04-24T08:35:55;100875.56;;;9.11;87.63
64368;BME280;50692;53.314;-6.300;2023-04-24T08:38:42;100875.31;;;9.17;87.39
64368;BME280;50692;53.314;-6.300;2023-04-24T08:41:28;100875.69;;;9.28;87.35
64368;BME280;50692;53.314;-6.300;2023-04-24T08:44:14;100870.31;;;9.30;87.03
64368;BME280;50692;53.314;-6.300;2023-04-24T08:47:02;100877.63;;;9.44;86.72
64368;BME280;50692;53.314;-6.300;2023-04-24T08:49:48;100866.56;;;9.54;86.53
64368;BME280;50692;53.314;-6.300;2023-04-24T08:52:37;100874.94;;;9.64;85.94
64368;BME280;50692;53.314;-6.300;2023-04-24T08:55:24;100883.31;;;9.72;85.09
64368;BME280;50692;53.314;-6.300;2023-04-24T08:58:10;100882.03;;;9.81;84.22
64368;BME280;50692;53.314;-6.300;2023-04-24T09:00:57;100889.19;;;9.79;82.97
64368;BME280;50692;53.314;-6.300;2023-04-24T09:03:43;100891.22;;;9.91;82.36
64368;BME280;50692;53.314;-6.300;2023-04-24T09:06:30;100898.50;;;10.05;81.95
64368;BME280;50692;53.314;-6.300;2023-04-24T09:09:17;100888.72;;;10.07;80.98
64368;BME280;50692;53.314;-6.300;2023-04-24T09:12:04;100897.50;;;10.07;80.79
64368;BME280;50692;53.314;-6.300;2023-04-24T09:14:50;100908.22;;;10.04;80.37
64368;BME280;50692;53.314;-6.300;2023-04-24T09:17:37;100906.22;;;9.91;80.60
64368;BME280;50692;53.314;-6.300;2023-04-24T09:20:23;100912.00;;;9.80;80.08
64368;BME280;50692;53.314;-6.300;2023-04-24T09:23:10;100925.22;;;9.80;80.97
64368;BME280;50692;53.314;-6.300;2023-04-24T09:26:02;100916.16;;;9.85;81.16
64368;BME280;50692;53.314;-6.300;2023-04-24T09:28:50;100911.06;;;9.81;81.18
64368;BME280;50692;53.314;-6.300;2023-04-24T09:31:36;100920.41;;;9.88;81.08
64368;BME280;50692;53.314;-6.300;2023-04-24T09:34:23;100932.63;;;9.91;81.22
64368;BME280;50692;53.314;-6.300;2023-04-24T09:37:09;100932.97;;;10.02;81.45
64368;BME280;50692;53.314;-6.300;2023-04-24T09:40:19;100925.72;;;10.07;81.36
64368;BME280;50692;53.314;-6.300;2023-04-24T09:43:10;100932.56;;;10.11;80.73
64368;BME280;50692;53.314;-6.300;2023-04-24T09:45:57;100935.97;;;10.13;80.76
64368;BME280;50692;53.314;-6.300;2023-04-24T09:48:44;100943.34;;;10.06;79.51
64368;BME280;50692;53.314;-6.300;2023-04-24T09:51:34;100951.41;;;10.03;79.50
64368;BME280;50692;53.314;-6.300;2023-04-24T09:54:21;100950.34;;;10.07;79.78
64368;BME280;50692;53.314;-6.300;2023-04-24T09:57:08;100948.84;;;10.21;80.10
64368;BME280;50692;53.314;-6.300;2023-04-24T09:59:54;100948.34;;;10.31;80.44
64368;BME280;50692;53.314;-6.300;2023-04-24T10:02:40;100954.03;;;10.41;80.04
64368;BME280;50692;53.314;-6.300;2023-04-24T10:05:35;100957.78;;;10.54;80.28
64368;BME280;50692;53.314;-6.300;2023-04-24T10:08:21;100957.41;;;10.62;79.99
64368;BME280;50692;53.314;-6.300;2023-04-24T10:11:07;100965.09;;;10.67;79.44
64368;BME280;50692;53.314;-6.300;2023-04-24T10:13:53;100951.88;;;10.67;78.68
64368;BME280;50692;53.314;-6.300;2023-04-24T10:16:42;100962.47;;;10.67;77.95
64368;BME280;50692;53.314;-6.300;2023-04-24T10:19:29;100959.69;;;10.87;77.03
64368;BME280;50692;53.314;-6.300;2023-04-24T10:22:16;100962.03;;;10.93;75.86
64368;BME280;50692;53.314;-6.300;2023-04-24T10:25:04;100952.59;;;10.88;74.43
64368;BME280;50692;53.314;-6.300;2023-04-24T10:27:52;100975.31;;;11.09;73.80
64368;BME280;50692;53.314;-6.300;2023-04-24T10:30:38;100966.97;;;11.34;73.61
64368;BME280;50692;53.314;-6.300;2023-04-24T10:33:29;100956.41;;;11.67;73.11
64368;BME280;50692;53.314;-6.300;2023-04-24T10:36:16;100960.50;;;11.90;68.39
64368;BME280;50692;53.314;-6.300;2023-04-24T10:39:06;100976.06;;;12.12;67.97
64368;BME280;50692;53.314;-6.300;2023-04-24T10:41:54;100975.47;;;12.23;67.59
64368;BME280;50692;53.314;-6.300;2023-04-24T10:44:42;100985.91;;;12.26;65.27
64368;BME280;50692;53.314;-6.300;2023-04-24T10:47:28;100984.78;;;12.30;65.41
64368;BME280;50692;53.314;-6.300;2023-04-24T10:50:14;100994.44;;;12.31;66.30
64368;BME280;50692;53.314;-6.300;2023-04-24T10:53:12;100998.53;;;12.21;64.65
64368;BME280;50692;53.314;-6.300;2023-04-24T10:56:06;101000.94;;;12.10;63.56
64368;BME280;50692;53.314;-6.300;2023-04-24T10:58:53;100977.50;;;11.86;64.23
64368;BME280;50692;53.314;-6.300;2023-04-24T11:01:39;101006.38;;;11.91;64.93
64368;BME280;50692;53.314;-6.300;2023-04-24T11:04:31;101001.47;;;11.83;63.95
64368;BME280;50692;53.314;-6.300;2023-04-24T11:07:20;101015.97;;;11.76;63.01
64368;BME280;50692;53.314;-6.300;2023-04-24T11:10:06;101011.16;;;11.84;62.69
64368;BME280;50692;53.314;-6.300;2023-04-24T11:12:52;101019.94;;;11.85;61.38
64368;BME280;50692;53.314;-6.300;2023-04-24T11:15:41;101016.13;;;11.73;61.92
64368;BME280;50692;53.314;-6.300;2023-04-24T11:18:37;101020.06;;;11.82;61.87
64368;BME280;50692;53.314;-6.300;2023-04-24T11:21:22;101022.97;;;11.94;62.62
64368;BME280;50692;53.314;-6.300;2023-04-24T11:24:28;101024.34;;;12.02;62.04
64368;BME280;50692;53.314;-6.300;2023-04-24T11:27:19;101031.34;;;12.03;61.77
64368;BME280;50692;53.314;-6.300;2023-04-24T11:30:06;101034.63;;;12.08;60.78
64368;BME280;50692;53.314;-6.300;2023-04-24T11:32:52;101036.84;;;12.31;60.10
64368;BME280;50692;53.314;-6.300;2023-04-24T11:35:41;101040.47;;;12.62;60.25
64368;BME280;50692;53.314;-6.300;2023-04-24T11:38:27;101040.88;;;12.70;59.11
64368;BME280;50692;53.314;-6.300;2023-04-24T11:41:13;101045.06;;;12.74;59.28
64368;BME280;50692;53.314;-6.300;2023-04-24T11:43:59;101047.72;;;12.74;58.35
64368;BME280;50692;53.314;-6.300;2023-04-24T11:46:45;101047.47;;;12.63;58.30
64368;BME280;50692;53.314;-6.300;2023-04-24T11:49:31;101046.28;;;12.53;57.56
64368;BME280;50692;53.314;-6.300;2023-04-24T11:52:17;101044.66;;;12.50;57.89
64368;BME280;50692;53.314;-6.300;2023-04-24T11:55:03;101037.72;;;12.63;57.43
64368;BME280;50692;53.314;-6.300;2023-04-24T11:57:51;101046.53;;;13.10;57.74
64368;BME280;50692;53.314;-6.300;2023-04-24T12:00:38;101046.84;;;13.35;56.27
64368;BME280;50692;53.314;-6.300;2023-04-24T12:03:24;101051.16;;;13.52;55.50
64368;BME280;50692;53.314;-6.300;2023-04-24T12:06:11;101053.81;;;13.52;54.46
64368;BME280;50692;53.314;-6.300;2023-04-24T12:08:57;101053.81;;;13.52;54.43
64368;BME280;50692;53.314;-6.300;2023-04-24T12:11:54;101057.44;;;13.51;54.07
64368;BME280;50692;53.314;-6.300;2023-04-24T12:14:54;101061.09;;;13.18;52.91
64368;BME280;50692;53.314;-6.300;2023-04-24T12:17:41;101065.50;;;13.04;53.96
64368;BME280;50692;53.314;-6.300;2023-04-24T12:20:29;101064.31;;;12.78;54.19
64368;BME280;50692;53.314;-6.300;2023-04-24T12:23:16;101074.78;;;12.65;54.12
64368;BME280;50692;53.314;-6.300;2023-04-24T12:26:05;101079.81;;;12.54;54.48
64368;BME280;50692;53.314;-6.300;2023-04-24T12:28:51;101082.44;;;12.38;54.78
64368;BME280;50692;53.314;-6.300;2023-04-24T12:31:37;101082.59;;;12.35;55.56
64368;BME280;50692;53.314;-6.300;2023-04-24T12:34:24;101065.84;;;12.34;55.60
64368;BME280;50692;53.314;-6.300;2023-04-24T12:37:11;101089.31;;;12.58;54.92
64368;BME280;50692;53.314;-6.300;2023-04-24T12:40:08;101078.59;;;12.59;53.28
64368;BME280;50692;53.314;-6.300;2023-04-24T12:42:54;101093.16;;;12.68;54.33
64368;BME280;50692;53.314;-6.300;2023-04-24T12:45:40;101095.28;;;12.77;54.04
64368;BME280;50692;53.314;-6.300;2023-04-24T12:48:26;101100.25;;;12.83;53.20
64368;BME280;50692;53.314;-6.300;2023-04-24T12:51:12;101101.28;;;12.81;53.40
64368;BME280;50692;53.314;-6.300;2023-04-24T12:53:58;101099.81;;;12.91;52.61
64368;BME280;50692;53.314;-6.300;2023-04-24T12:56:44;101102.28;;;13.10;52.58
64368;BME280;50692;53.314;-6.300;2023-04-24T12:59:30;101108.00;;;13.18;52.08
64368;BME280;50692;53.314;-6.300;2023-04-24T13:02:16;101111.13;;;13.26;51.53
64368;BME280;50692;53.314;-6.300;2023-04-24T13:05:05;101114.06;;;13.36;50.06
64368;BME280;50692;53.314;-6.300;2023-04-24T13:07:51;101116.53;;;13.55;49.05
64368;BME280;50692;53.314;-6.300;2023-04-24T13:10:37;101112.91;;;13.56;49.01
64368;BME280;50692;53.314;-6.300;2023-04-24T13:13:23;101111.84;;;13.44;48.79
64368;BME280;50692;53.314;-6.300;2023-04-24T13:16:09;101124.50;;;13.39;48.90
64368;BME280;50692;53.314;-6.300;2023-04-24T13:18:55;101110.38;;;13.38;48.48
64368;BME280;50692;53.314;-6.300;2023-04-24T13:21:41;101117.78;;;13.33;47.90
64368;BME280;50692;53.314;-6.300;2023-04-24T13:24:26;101114.53;;;13.28;47.32
64368;BME280;50692;53.314;-6.300;2023-04-24T13:27:12;101116.56;;;13.23;47.65
64368;BME280;50692;53.314;-6.300;2023-04-24T13:29:58;101120.88;;;13.26;48.88
64368;BME280;50692;53.314;-6.300;2023-04-24T13:32:44;101113.97;;;13.21;49.57
64368;BME280;50692;53.314;-6.300;2023-04-24T13:35:30;101124.47;;;13.09;48.48
64368;BME280;50692;53.314;-6.300;2023-04-24T13:38:16;101125.84;;;13.00;48.52
64368;BME280;50692;53.314;-6.300;2023-04-24T13:41:02;101134.59;;;12.86;48.34
64368;BME280;50692;53.314;-6.300;2023-04-24T13:43:48;101133.44;;;12.75;49.04
64368;BME280;50692;53.314;-6.300;2023-04-24T13:46:34;101134.31;;;12.75;49.51
64368;BME280;50692;53.314;-6.300;2023-04-24T13:49:21;101139.00;;;12.70;49.63
64368;BME280;50692;53.314;-6.300;2023-04-24T13:52:07;101143.47;;;12.69;49.32
64368;BME280;50692;53.314;-6.300;2023-04-24T13:54:53;101138.44;;;12.65;49.55
64368;BME280;50692;53.314;-6.300;2023-04-24T13:57:38;101151.16;;;12.58;49.16
64368;BME280;50692;53.314;-6.300;2023-04-24T14:00:24;101140.72;;;12.55;49.85
64368;BME280;50692;53.314;-6.300;2023-04-24T14:03:10;101146.19;;;12.52;50.20
64368;BME280;50692;53.314;-6.300;2023-04-24T14:05:56;101145.75;;;12.60;49.33
64368;BME280;50692;53.314;-6.300;2023-04-24T14:08:43;101151.06;;;12.60;48.85
64368;BME280;50692;53.314;-6.300;2023-04-24T14:11:28;101139.69;;;12.58;49.00
64368;BME280;50692;53.314;-6.300;2023-04-24T14:14:14;101150.47;;;12.55;49.11
64368;BME280;50692;53.314;-6.300;2023-04-24T14:17:00;101149.94;;;12.64;49.02
64368;BME280;50692;53.314;-6.300;2023-04-24T14:19:46;101158.59;;;12.67;49.86
64368;BME280;50692;53.314;-6.300;2023-04-24T14:22:32;101154.41;;;12.63;48.88